South Kensington, United Kingdom
Current Conditions -  °F | °C
As of 2:20 PM on Saturday 20 Dec 2014 (Local Time) from EGLC Reporting Station
Broken Clouds Broken Clouds  
Wind Chill: 50°   Ceiling: 3000
Heat Index: 50°   Visibility: 6mi
Dew Point: 36°   Wind: 17mph
Humidity: 58%   Direction: 290°WNW
Pressure: 30.3"   Gusts: NA
Location:  51.5°N, 0.17°W
Report Text: EGLC 201420Z AUTO 29015KT 9999 BKN030/// 10/02 Q1026
Loading
Personal Weather Stations






























Interactive Weather Map New forecast layout! Learn more

10-Day Weather Forecast

Advertisements
Track Severe Weather on mobile